KBCB/BCB METAR and TAF weather

Enter ICAO airport designator
Station Type Date Time Source
KBCB METAR 2018/10/21 03:35 UTC NOAA

KBCB 210335Z AUTO 29012G20KT 230V330 10SM SCT060 BKN070 OVC080 10/03 A2988 RMK AO2 T00960027


Station Type Date Time Source
KBCB Decoded METAR 2018/10/21 03:35 UTC NOAA

Virginia Tech Airport, VA, United States (KBCB) 37-13N 080-25W
Oct 20, 2018 - 11:35 PM EDT / 2018.10.21 0335 UTC
Wind: from the WNW (290 degrees) at 14 MPH (12 KT) gusting to 23 MPH (20 KT) (direction variable):0
Visibility: 10 mile(s):0
Sky conditions: overcast
Temperature: 49.3 F (9.6 C)
Dew Point: 36.9 F (2.7 C)
Relative Humidity: 62%
Pressure (altimeter): 29.88 in. Hg (1011 hPa)
ob: KBCB 210335Z AUTO 29012G20KT 230V330 10SM SCT060 BKN070 OVC080 10/03 A298

Station Type Date Time Source
KBCB TAF 2018/10/20 18:39 UTC NOAA

TAF KBCB 201736Z 2018/2118 28012KT P6SM SCT025 BKN040
TEMPO 2018/2020 BKN025
FM202000 28013KT P6SM SCT040
FM210200 30015G23KT P6SM SCT045
FM211500 32011G21KT P6SM FEW250


Example: see airport list